sensor_id;sensor_type;location;lat;lon;timestamp;P1;durP1;ratioP1;P2;durP2;ratioP2
45836;SDS011;31548;51.420;-0.040;2023-03-08T00:02:26;16.48;;;9.40;;
45836;SDS011;31548;51.420;-0.040;2023-03-08T00:04:53;18.10;;;9.57;;
45836;SDS011;31548;51.420;-0.040;2023-03-08T00:07:21;21.95;;;10.68;;
45836;SDS011;31548;51.420;-0.040;2023-03-08T00:09:49;21.17;;;11.77;;
45836;SDS011;31548;51.420;-0.040;2023-03-08T00:12:16;19.85;;;10.48;;
45836;SDS011;31548;51.420;-0.040;2023-03-08T00:14:45;21.95;;;11.45;;
45836;SDS011;31548;51.420;-0.040;2023-03-08T00:17:13;20.48;;;11.38;;
45836;SDS011;31548;51.420;-0.040;2023-03-08T00:19:40;21.67;;;11.45;;
45836;SDS011;31548;51.420;-0.040;2023-03-08T00:22:08;21.38;;;11.35;;
45836;SDS011;31548;51.420;-0.040;2023-03-08T00:24:36;22.33;;;11.77;;
45836;SDS011;31548;51.420;-0.040;2023-03-08T00:27:04;23.85;;;12.63;;
45836;SDS011;31548;51.420;-0.040;2023-03-08T00:29:31;19.80;;;11.32;;
45836;SDS011;31548;51.420;-0.040;2023-03-08T00:31:58;30.73;;;12.23;;
45836;SDS011;31548;51.420;-0.040;2023-03-08T00:34:26;23.50;;;12.38;;
45836;SDS011;31548;51.420;-0.040;2023-03-08T00:36:53;18.73;;;11.10;;
45836;SDS011;31548;51.420;-0.040;2023-03-08T00:39:20;22.77;;;11.40;;
45836;SDS011;31548;51.420;-0.040;2023-03-08T00:41:48;21.48;;;12.10;;
45836;SDS011;31548;51.420;-0.040;2023-03-08T00:44:15;25.05;;;12.57;;
45836;SDS011;31548;51.420;-0.040;2023-03-08T00:46:42;22.63;;;12.43;;
45836;SDS011;31548;51.420;-0.040;2023-03-08T00:49:12;23.38;;;11.48;;
45836;SDS011;31548;51.420;-0.040;2023-03-08T00:51:39;27.20;;;14.40;;
45836;SDS011;31548;51.420;-0.040;2023-03-08T00:54:08;21.70;;;11.65;;
45836;SDS011;31548;51.420;-0.040;2023-03-08T00:56:36;23.58;;;12.80;;
45836;SDS011;31548;51.420;-0.040;2023-03-08T00:59:04;22.30;;;12.25;;
45836;SDS011;31548;51.420;-0.040;2023-03-08T01:01:32;24.40;;;12.95;;
45836;SDS011;31548;51.420;-0.040;2023-03-08T01:04:00;24.70;;;12.73;;
45836;SDS011;31548;51.420;-0.040;2023-03-08T01:06:29;26.88;;;13.05;;
45836;SDS011;31548;51.420;-0.040;2023-03-08T01:08:56;25.70;;;12.98;;
45836;SDS011;31548;51.420;-0.040;2023-03-08T01:11:24;30.08;;;13.80;;
45836;SDS011;31548;51.420;-0.040;2023-03-08T01:13:53;24.75;;;13.70;;
45836;SDS011;31548;51.420;-0.040;2023-03-08T01:16:22;23.55;;;12.93;;
45836;SDS011;31548;51.420;-0.040;2023-03-08T01:18:57;25.15;;;14.27;;
45836;SDS011;31548;51.420;-0.040;2023-03-08T01:21:26;31.38;;;14.75;;
45836;SDS011;31548;51.420;-0.040;2023-03-08T01:23:55;27.80;;;13.48;;
45836;SDS011;31548;51.420;-0.040;2023-03-08T01:26:24;27.80;;;14.25;;
45836;SDS011;31548;51.420;-0.040;2023-03-08T01:28:56;25.90;;;14.02;;
45836;SDS011;31548;51.420;-0.040;2023-03-08T01:31:27;23.23;;;13.85;;
45836;SDS011;31548;51.420;-0.040;2023-03-08T01:33:57;26.80;;;14.52;;
45836;SDS011;31548;51.420;-0.040;2023-03-08T01:36:25;22.52;;;13.93;;
45836;SDS011;31548;51.420;-0.040;2023-03-08T01:38:53;32.90;;;14.90;;
45836;SDS011;31548;51.420;-0.040;2023-03-08T01:41:22;31.15;;;15.85;;
45836;SDS011;31548;51.420;-0.040;2023-03-08T01:43:52;28.80;;;16.10;;
45836;SDS011;31548;51.420;-0.040;2023-03-08T01:51:41;30.20;;;14.35;;
45836;SDS011;31548;51.420;-0.040;2023-03-08T01:54:16;28.58;;;14.98;;
45836;SDS011;31548;51.420;-0.040;2023-03-08T01:56:52;32.72;;;15.95;;
45836;SDS011;31548;51.420;-0.040;2023-03-08T01:59:25;25.80;;;13.38;;
45836;SDS011;31548;51.420;-0.040;2023-03-08T02:01:52;31.00;;;14.82;;
45836;SDS011;31548;51.420;-0.040;2023-03-08T02:04:21;27.38;;;14.90;;
45836;SDS011;31548;51.420;-0.040;2023-03-08T02:06:48;26.83;;;14.95;;
45836;SDS011;31548;51.420;-0.040;2023-03-08T02:09:19;28.27;;;14.55;;
45836;SDS011;31548;51.420;-0.040;2023-03-08T02:11:47;26.80;;;15.32;;
45836;SDS011;31548;51.420;-0.040;2023-03-08T02:14:15;25.77;;;14.70;;
45836;SDS011;31548;51.420;-0.040;2023-03-08T02:16:47;29.17;;;15.52;;
45836;SDS011;31548;51.420;-0.040;2023-03-08T02:19:25;28.38;;;15.10;;
45836;SDS011;31548;51.420;-0.040;2023-03-08T02:22:20;26.10;;;13.73;;
45836;SDS011;31548;51.420;-0.040;2023-03-08T02:24:47;24.80;;;13.32;;
45836;SDS011;31548;51.420;-0.040;2023-03-08T02:27:22;27.80;;;14.32;;
45836;SDS011;31548;51.420;-0.040;2023-03-08T02:29:52;24.73;;;13.63;;
45836;SDS011;31548;51.420;-0.040;2023-03-08T02:32:21;21.30;;;12.32;;
45836;SDS011;31548;51.420;-0.040;2023-03-08T02:34:49;22.60;;;13.40;;
45836;SDS011;31548;51.420;-0.040;2023-03-08T02:37:16;32.28;;;16.13;;
45836;SDS011;31548;51.420;-0.040;2023-03-08T02:39:46;24.58;;;13.63;;
45836;SDS011;31548;51.420;-0.040;2023-03-08T02:42:13;23.90;;;14.05;;
45836;SDS011;31548;51.420;-0.040;2023-03-08T02:44:41;26.92;;;14.77;;
45836;SDS011;31548;51.420;-0.040;2023-03-08T02:47:08;30.88;;;16.02;;
45836;SDS011;31548;51.420;-0.040;2023-03-08T02:49:36;30.30;;;15.23;;
45836;SDS011;31548;51.420;-0.040;2023-03-08T02:52:03;27.83;;;15.48;;
45836;SDS011;31548;51.420;-0.040;2023-03-08T02:54:31;31.23;;;15.43;;
45836;SDS011;31548;51.420;-0.040;2023-03-08T02:56:59;24.77;;;14.02;;
45836;SDS011;31548;51.420;-0.040;2023-03-08T02:59:27;23.15;;;13.20;;
45836;SDS011;31548;51.420;-0.040;2023-03-08T03:01:57;27.05;;;13.75;;
45836;SDS011;31548;51.420;-0.040;2023-03-08T03:04:29;33.08;;;16.85;;
45836;SDS011;31548;51.420;-0.040;2023-03-08T03:06:58;29.48;;;15.65;;
45836;SDS011;31548;51.420;-0.040;2023-03-08T03:09:28;28.67;;;15.73;;
45836;SDS011;31548;51.420;-0.040;2023-03-08T03:11:56;34.97;;;16.33;;
45836;SDS011;31548;51.420;-0.040;2023-03-08T03:14:25;28.08;;;14.13;;
45836;SDS011;31548;51.420;-0.040;2023-03-08T03:16:54;29.90;;;16.15;;
45836;SDS011;31548;51.420;-0.040;2023-03-08T03:19:22;29.95;;;15.77;;
45836;SDS011;31548;51.420;-0.040;2023-03-08T03:21:49;24.20;;;13.02;;
45836;SDS011;31548;51.420;-0.040;2023-03-08T03:24:16;35.65;;;17.50;;
45836;SDS011;31548;51.420;-0.040;2023-03-08T03:26:51;27.70;;;14.85;;
45836;SDS011;31548;51.420;-0.040;2023-03-08T03:29:20;30.38;;;15.02;;
45836;SDS011;31548;51.420;-0.040;2023-03-08T03:31:53;35.03;;;16.60;;
45836;SDS011;31548;51.420;-0.040;2023-03-08T03:34:21;31.58;;;15.07;;
45836;SDS011;31548;51.420;-0.040;2023-03-08T03:36:49;28.63;;;14.75;;
45836;SDS011;31548;51.420;-0.040;2023-03-08T03:39:16;30.05;;;15.20;;
45836;SDS011;31548;51.420;-0.040;2023-03-08T03:41:46;29.00;;;14.90;;
45836;SDS011;31548;51.420;-0.040;2023-03-08T03:44:14;32.13;;;15.77;;
45836;SDS011;31548;51.420;-0.040;2023-03-08T03:46:43;28.63;;;14.65;;
45836;SDS011;31548;51.420;-0.040;2023-03-08T03:49:14;26.40;;;12.82;;
45836;SDS011;31548;51.420;-0.040;2023-03-08T03:51:43;30.85;;;14.60;;
45836;SDS011;31548;51.420;-0.040;2023-03-08T03:54:17;29.05;;;14.52;;
45836;SDS011;31548;51.420;-0.040;2023-03-08T03:56:46;24.58;;;12.20;;
45836;SDS011;31548;51.420;-0.040;2023-03-08T03:59:13;28.80;;;13.63;;
45836;SDS011;31548;51.420;-0.040;2023-03-08T04:01:41;24.77;;;13.85;;
45836;SDS011;31548;51.420;-0.040;2023-03-08T04:04:31;30.17;;;13.15;;
45836;SDS011;31548;51.420;-0.040;2023-03-08T04:06:59;29.30;;;14.10;;
45836;SDS011;31548;51.420;-0.040;2023-03-08T04:09:31;26.33;;;13.25;;
45836;SDS011;31548;51.420;-0.040;2023-03-08T04:12:06;25.83;;;12.98;;
45836;SDS011;31548;51.420;-0.040;2023-03-08T04:14:34;23.08;;;11.10;;
45836;SDS011;31548;51.420;-0.040;2023-03-08T04:17:02;23.30;;;11.98;;
45836;SDS011;31548;51.420;-0.040;2023-03-08T04:19:37;25.38;;;11.80;;
45836;SDS011;31548;51.420;-0.040;2023-03-08T04:22:06;21.00;;;11.10;;
45836;SDS011;31548;51.420;-0.040;2023-03-08T04:24:41;19.70;;;9.93;;
45836;SDS011;31548;51.420;-0.040;2023-03-08T04:27:13;22.15;;;10.50;;
45836;SDS011;31548;51.420;-0.040;2023-03-08T04:29:41;19.40;;;9.85;;
45836;SDS011;31548;51.420;-0.040;2023-03-08T04:32:08;17.73;;;9.18;;
45836;SDS011;31548;51.420;-0.040;2023-03-08T04:34:41;15.80;;;7.85;;
45836;SDS011;31548;51.420;-0.040;2023-03-08T04:37:12;16.35;;;7.32;;
45836;SDS011;31548;51.420;-0.040;2023-03-08T04:39:42;16.75;;;7.80;;
45836;SDS011;31548;51.420;-0.040;2023-03-08T04:42:10;14.35;;;7.45;;
45836;SDS011;31548;51.420;-0.040;2023-03-08T04:44:37;16.38;;;8.30;;
45836;SDS011;31548;51.420;-0.040;2023-03-08T04:47:05;17.48;;;7.53;;
45836;SDS011;31548;51.420;-0.040;2023-03-08T04:49:42;13.55;;;6.90;;
45836;SDS011;31548;51.420;-0.040;2023-03-08T04:52:09;13.63;;;6.70;;
45836;SDS011;31548;51.420;-0.040;2023-03-08T04:54:37;13.30;;;6.60;;
45836;SDS011;31548;51.420;-0.040;2023-03-08T04:57:23;10.52;;;5.40;;
45836;SDS011;31548;51.420;-0.040;2023-03-08T04:59:53;18.23;;;8.43;;
45836;SDS011;31548;51.420;-0.040;2023-03-08T05:02:21;12.50;;;6.65;;
45836;SDS011;31548;51.420;-0.040;2023-03-08T05:04:49;14.02;;;6.47;;
45836;SDS011;31548;51.420;-0.040;2023-03-08T05:07:17;13.05;;;6.80;;
45836;SDS011;31548;51.420;-0.040;2023-03-08T05:09:46;15.18;;;6.82;;
45836;SDS011;31548;51.420;-0.040;2023-03-08T05:12:13;11.35;;;5.55;;
45836;SDS011;31548;51.420;-0.040;2023-03-08T05:14:54;12.25;;;5.53;;
45836;SDS011;31548;51.420;-0.040;2023-03-08T05:17:23;9.95;;;4.88;;
45836;SDS011;31548;51.420;-0.040;2023-03-08T05:19:51;11.00;;;5.38;;
45836;SDS011;31548;51.420;-0.040;2023-03-08T05:22:24;12.68;;;5.75;;
45836;SDS011;31548;51.420;-0.040;2023-03-08T05:24:54;12.05;;;5.57;;
45836;SDS011;31548;51.420;-0.040;2023-03-08T05:27:22;8.43;;;4.90;;
45836;SDS011;31548;51.420;-0.040;2023-03-08T05:29:51;10.32;;;5.22;;
45836;SDS011;31548;51.420;-0.040;2023-03-08T05:32:18;12.85;;;5.63;;
45836;SDS011;31548;51.420;-0.040;2023-03-08T05:34:46;17.70;;;6.82;;
45836;SDS011;31548;51.420;-0.040;2023-03-08T05:37:22;15.18;;;8.13;;
45836;SDS011;31548;51.420;-0.040;2023-03-08T05:39:55;8.93;;;5.32;;
45836;SDS011;31548;51.420;-0.040;2023-03-08T05:42:23;11.00;;;5.97;;
45836;SDS011;31548;51.420;-0.040;2023-03-08T05:44:51;9.25;;;4.78;;
45836;SDS011;31548;51.420;-0.040;2023-03-08T05:47:24;8.25;;;4.28;;
45836;SDS011;31548;51.420;-0.040;2023-03-08T05:49:52;8.45;;;4.40;;
45836;SDS011;31548;51.420;-0.040;2023-03-08T05:52:20;7.88;;;4.43;;
45836;SDS011;31548;51.420;-0.040;2023-03-08T05:54:49;8.07;;;4.47;;
45836;SDS011;31548;51.420;-0.040;2023-03-08T05:57:18;10.98;;;4.68;;
45836;SDS011;31548;51.420;-0.040;2023-03-08T05:59:47;7.03;;;3.95;;
45836;SDS011;31548;51.420;-0.040;2023-03-08T06:02:18;8.20;;;3.50;;
45836;SDS011;31548;51.420;-0.040;2023-03-08T06:04:48;5.93;;;3.00;;
45836;SDS011;31548;51.420;-0.040;2023-03-08T06:07:19;6.45;;;2.97;;
45836;SDS011;31548;51.420;-0.040;2023-03-08T06:09:52;5.68;;;3.00;;
45836;SDS011;31548;51.420;-0.040;2023-03-08T06:12:22;4.82;;;3.10;;
45836;SDS011;31548;51.420;-0.040;2023-03-08T06:14:53;5.15;;;2.80;;
45836;SDS011;31548;51.420;-0.040;2023-03-08T06:17:24;3.92;;;2.25;;
45836;SDS011;31548;51.420;-0.040;2023-03-08T06:19:53;2.97;;;1.80;;
45836;SDS011;31548;51.420;-0.040;2023-03-08T06:22:21;6.45;;;2.72;;
45836;SDS011;31548;51.420;-0.040;2023-03-08T06:24:49;3.55;;;2.00;;
45836;SDS011;31548;51.420;-0.040;2023-03-08T06:27:24;5.10;;;2.40;;
45836;SDS011;31548;51.420;-0.040;2023-03-08T06:29:54;2.35;;;1.83;;
45836;SDS011;31548;51.420;-0.040;2023-03-08T06:32:22;3.05;;;1.67;;
45836;SDS011;31548;51.420;-0.040;2023-03-08T06:34:50;3.80;;;2.05;;
45836;SDS011;31548;51.420;-0.040;2023-03-08T06:37:18;5.75;;;2.95;;
45836;SDS011;31548;51.420;-0.040;2023-03-08T06:39:45;5.78;;;2.40;;
45836;SDS011;31548;51.420;-0.040;2023-03-08T06:42:13;4.05;;;2.20;;
45836;SDS011;31548;51.420;-0.040;2023-03-08T06:44:40;4.78;;;2.72;;
45836;SDS011;31548;51.420;-0.040;2023-03-08T06:47:08;2.60;;;1.90;;
45836;SDS011;31548;51.420;-0.040;2023-03-08T06:49:35;4.35;;;2.38;;
45836;SDS011;31548;51.420;-0.040;2023-03-08T06:52:02;4.10;;;2.30;;
45836;SDS011;31548;51.420;-0.040;2023-03-08T06:54:31;4.65;;;1.88;;
45836;SDS011;31548;51.420;-0.040;2023-03-08T06:57:01;3.30;;;2.20;;
45836;SDS011;31548;51.420;-0.040;2023-03-08T06:59:31;2.65;;;1.80;;
45836;SDS011;31548;51.420;-0.040;2023-03-08T07:01:58;2.53;;;1.60;;
45836;SDS011;31548;51.420;-0.040;2023-03-08T07:04:25;3.67;;;1.92;;
45836;SDS011;31548;51.420;-0.040;2023-03-08T07:06:53;4.30;;;1.75;;
45836;SDS011;31548;51.420;-0.040;2023-03-08T07:09:20;1.75;;;1.30;;
45836;SDS011;31548;51.420;-0.040;2023-03-08T07:11:47;2.65;;;1.35;;
45836;SDS011;31548;51.420;-0.040;2023-03-08T07:14:15;3.85;;;2.28;;
45836;SDS011;31548;51.420;-0.040;2023-03-08T07:16:42;4.00;;;1.90;;
45836;SDS011;31548;51.420;-0.040;2023-03-08T07:19:09;1.98;;;1.30;;
45836;SDS011;31548;51.420;-0.040;2023-03-08T07:21:36;2.08;;;1.23;;
45836;SDS011;31548;51.420;-0.040;2023-03-08T07:24:04;3.15;;;1.45;;
45836;SDS011;31548;51.420;-0.040;2023-03-08T07:26:31;2.53;;;1.50;;
45836;SDS011;31548;51.420;-0.040;2023-03-08T07:28:59;1.58;;;1.00;;
45836;SDS011;31548;51.420;-0.040;2023-03-08T07:31:26;1.60;;;1.20;;
45836;SDS011;31548;51.420;-0.040;2023-03-08T07:33:55;4.60;;;1.35;;
45836;SDS011;31548;51.420;-0.040;2023-03-08T07:36:22;1.38;;;0.93;;
45836;SDS011;31548;51.420;-0.040;2023-03-08T07:38:49;2.05;;;1.15;;
45836;SDS011;31548;51.420;-0.040;2023-03-08T07:41:17;2.08;;;1.30;;
45836;SDS011;31548;51.420;-0.040;2023-03-08T07:43:44;3.10;;;1.40;;
45836;SDS011;31548;51.420;-0.040;2023-03-08T07:46:15;5.50;;;1.65;;
45836;SDS011;31548;51.420;-0.040;2023-03-08T07:48:42;2.00;;;1.10;;
45836;SDS011;31548;51.420;-0.040;2023-03-08T07:51:10;2.65;;;1.00;;
45836;SDS011;31548;51.420;-0.040;2023-03-08T07:53:38;2.25;;;1.30;;
45836;SDS011;31548;51.420;-0.040;2023-03-08T07:56:05;1.10;;;0.90;;
45836;SDS011;31548;51.420;-0.040;2023-03-08T07:58:33;1.83;;;1.10;;
45836;SDS011;31548;51.420;-0.040;2023-03-08T08:01:00;1.83;;;1.05;;
45836;SDS011;31548;51.420;-0.040;2023-03-08T08:03:28;1.48;;;0.80;;
45836;SDS011;31548;51.420;-0.040;2023-03-08T08:05:55;1.95;;;0.85;;
45836;SDS011;31548;51.420;-0.040;2023-03-08T08:08:27;1.55;;;1.00;;
45836;SDS011;31548;51.420;-0.040;2023-03-08T08:10:54;1.60;;;0.90;;
45836;SDS011;31548;51.420;-0.040;2023-03-08T08:13:21;2.65;;;0.98;;
45836;SDS011;31548;51.420;-0.040;2023-03-08T08:15:59;1.00;;;0.85;;
45836;SDS011;31548;51.420;-0.040;2023-03-08T08:18:27;1.20;;;1.00;;
45836;SDS011;31548;51.420;-0.040;2023-03-08T08:20:59;0.80;;;0.70;;
45836;SDS011;31548;51.420;-0.040;2023-03-08T08:23:31;1.15;;;1.00;;
45836;SDS011;31548;51.420;-0.040;2023-03-08T08:25:58;2.42;;;1.00;;
45836;SDS011;31548;51.420;-0.040;2023-03-08T08:28:26;1.00;;;0.90;;
45836;SDS011;31548;51.420;-0.040;2023-03-08T08:30:55;1.73;;;0.90;;
45836;SDS011;31548;51.420;-0.040;2023-03-08T08:33:27;1.52;;;1.00;;
45836;SDS011;31548;51.420;-0.040;2023-03-08T08:35:55;1.60;;;1.25;;
45836;SDS011;31548;51.420;-0.040;2023-03-08T08:38:23;4.90;;;1.65;;
45836;SDS011;31548;51.420;-0.040;2023-03-08T08:40:51;1.40;;;1.20;;
45836;SDS011;31548;51.420;-0.040;2023-03-08T08:43:18;3.50;;;1.10;;
45836;SDS011;31548;51.420;-0.040;2023-03-08T08:45:47;4.00;;;1.02;;
45836;SDS011;31548;51.420;-0.040;2023-03-08T08:48:18;1.83;;;1.10;;
45836;SDS011;31548;51.420;-0.040;2023-03-08T08:50:46;2.97;;;1.17;;
45836;SDS011;31548;51.420;-0.040;2023-03-08T08:53:13;1.13;;;0.90;;
45836;SDS011;31548;51.420;-0.040;2023-03-08T08:55:41;2.85;;;1.33;;
45836;SDS011;31548;51.420;-0.040;2023-03-08T08:58:11;4.43;;;3.08;;
45836;SDS011;31548;51.420;-0.040;2023-03-08T09:00:38;3.40;;;2.83;;
45836;SDS011;31548;51.420;-0.040;2023-03-08T09:03:06;1.75;;;1.65;;
45836;SDS011;31548;51.420;-0.040;2023-03-08T09:05:37;2.47;;;1.63;;
45836;SDS011;31548;51.420;-0.040;2023-03-08T09:08:05;2.50;;;1.50;;
45836;SDS011;31548;51.420;-0.040;2023-03-08T09:10:34;1.55;;;1.25;;
45836;SDS011;31548;51.420;-0.040;2023-03-08T09:13:03;3.80;;;1.85;;
45836;SDS011;31548;51.420;-0.040;2023-03-08T09:15:33;3.72;;;1.25;;
45836;SDS011;31548;51.420;-0.040;2023-03-08T09:18:02;1.58;;;1.40;;
45836;SDS011;31548;51.420;-0.040;2023-03-08T09:20:29;3.47;;;1.17;;
45836;SDS011;31548;51.420;-0.040;2023-03-08T09:22:57;1.33;;;1.10;;
45836;SDS011;31548;51.420;-0.040;2023-03-08T09:25:24;2.85;;;1.60;;
45836;SDS011;31548;51.420;-0.040;2023-03-08T09:27:52;2.53;;;1.13;;
45836;SDS011;31548;51.420;-0.040;2023-03-08T09:30:19;2.58;;;1.50;;
45836;SDS011;31548;51.420;-0.040;2023-03-08T09:32:46;3.10;;;1.17;;
45836;SDS011;31548;51.420;-0.040;2023-03-08T09:35:14;1.40;;;1.00;;
45836;SDS011;31548;51.420;-0.040;2023-03-08T09:37:41;2.67;;;1.55;;
45836;SDS011;31548;51.420;-0.040;2023-03-08T09:40:13;2.28;;;1.58;;
45836;SDS011;31548;51.420;-0.040;2023-03-08T09:42:50;3.22;;;1.10;;
45836;SDS011;31548;51.420;-0.040;2023-03-08T09:45:23;4.28;;;1.20;;
45836;SDS011;31548;51.420;-0.040;2023-03-08T09:48:11;1.60;;;1.50;;
45836;SDS011;31548;51.420;-0.040;2023-03-08T09:50:51;2.58;;;1.60;;
45836;SDS011;31548;51.420;-0.040;2023-03-08T09:59:10;1.83;;;1.00;;
45836;SDS011;31548;51.420;-0.040;2023-03-08T10:01:58;3.87;;;0.93;;
45836;SDS011;31548;51.420;-0.040;2023-03-08T10:07:44;1.63;;;1.00;;
45836;SDS011;31548;51.420;-0.040;2023-03-08T10:16:04;2.15;;;1.23;;
45836;SDS011;31548;51.420;-0.040;2023-03-08T10:18:50;3.45;;;1.10;;
45836;SDS011;31548;51.420;-0.040;2023-03-08T10:21:22;3.35;;;1.38;;
45836;SDS011;31548;51.420;-0.040;2023-03-08T10:26:33;2.20;;;1.00;;
45836;SDS011;31548;51.420;-0.040;2023-03-08T10:29:00;1.33;;;0.85;;
45836;SDS011;31548;51.420;-0.040;2023-03-08T10:31:28;5.55;;;1.15;;
45836;SDS011;31548;51.420;-0.040;2023-03-08T10:34:08;2.58;;;1.42;;
45836;SDS011;31548;51.420;-0.040;2023-03-08T10:36:50;4.10;;;0.90;;
45836;SDS011;31548;51.420;-0.040;2023-03-08T10:39:19;4.05;;;1.50;;
45836;SDS011;31548;51.420;-0.040;2023-03-08T10:41:48;2.65;;;1.45;;
45836;SDS011;31548;51.420;-0.040;2023-03-08T10:44:41;5.00;;;1.33;;
45836;SDS011;31548;51.420;-0.040;2023-03-08T10:47:31;3.63;;;1.50;;
45836;SDS011;31548;51.420;-0.040;2023-03-08T10:50:17;3.15;;;1.30;;
45836;SDS011;31548;51.420;-0.040;2023-03-08T10:52:47;4.45;;;1.08;;
45836;SDS011;31548;51.420;-0.040;2023-03-08T10:55:25;1.95;;;1.05;;
45836;SDS011;31548;51.420;-0.040;2023-03-08T10:57:56;3.28;;;1.33;;
45836;SDS011;31548;51.420;-0.040;2023-03-08T11:05:39;1.80;;;1.20;;
45836;SDS011;31548;51.420;-0.040;2023-03-08T11:08:28;3.05;;;1.10;;
45836;SDS011;31548;51.420;-0.040;2023-03-08T11:13:30;3.03;;;1.02;;
45836;SDS011;31548;51.420;-0.040;2023-03-08T11:18:59;5.63;;;2.50;;
45836;SDS011;31548;51.420;-0.040;2023-03-08T11:30:06;4.43;;;1.45;;
45836;SDS011;31548;51.420;-0.040;2023-03-08T11:38:31;6.30;;;1.65;;
45836;SDS011;31548;51.420;-0.040;2023-03-08T11:51:55;4.15;;;0.80;;
45836;SDS011;31548;51.420;-0.040;2023-03-08T11:57:37;3.67;;;0.80;;
45836;SDS011;31548;51.420;-0.040;2023-03-08T12:02:54;1.77;;;0.70;;
45836;SDS011;31548;51.420;-0.040;2023-03-08T12:05:26;2.42;;;1.00;;
45836;SDS011;31548;51.420;-0.040;2023-03-08T12:08:02;1.02;;;0.70;;
45836;SDS011;31548;51.420;-0.040;2023-03-08T12:10:59;2.95;;;1.73;;
45836;SDS011;31548;51.420;-0.040;2023-03-08T12:13:31;1.52;;;0.93;;
45836;SDS011;31548;51.420;-0.040;2023-03-08T12:30:15;1.23;;;0.93;;
45836;SDS011;31548;51.420;-0.040;2023-03-08T12:32:43;4.85;;;1.20;;
45836;SDS011;31548;51.420;-0.040;2023-03-08T12:37:53;2.22;;;1.08;;
45836;SDS011;31548;51.420;-0.040;2023-03-08T12:40:36;6.22;;;0.90;;
45836;SDS011;31548;51.420;-0.040;2023-03-08T12:43:08;2.15;;;0.80;;
45836;SDS011;31548;51.420;-0.040;2023-03-08T12:45:42;1.27;;;0.65;;
45836;SDS011;31548;51.420;-0.040;2023-03-08T12:48:18;4.22;;;0.75;;
45836;SDS011;31548;51.420;-0.040;2023-03-08T12:53:31;1.50;;;1.00;;
45836;SDS011;31548;51.420;-0.040;2023-03-08T12:56:03;1.42;;;0.82;;
45836;SDS011;31548;51.420;-0.040;2023-03-08T12:58:32;2.65;;;0.85;;
45836;SDS011;31548;51.420;-0.040;2023-03-08T13:01:03;4.53;;;1.10;;
45836;SDS011;31548;51.420;-0.040;2023-03-08T13:03:38;2.13;;;0.73;;
45836;SDS011;31548;51.420;-0.040;2023-03-08T13:06:13;4.63;;;1.00;;
45836;SDS011;31548;51.420;-0.040;2023-03-08T13:08:47;1.77;;;1.13;;
45836;SDS011;31548;51.420;-0.040;2023-03-08T13:11:19;1.20;;;0.88;;
45836;SDS011;31548;51.420;-0.040;2023-03-08T13:13:48;1.17;;;0.75;;
45836;SDS011;31548;51.420;-0.040;2023-03-08T13:16:30;2.67;;;1.13;;
45836;SDS011;31548;51.420;-0.040;2023-03-08T13:21:48;4.53;;;1.40;;
45836;SDS011;31548;51.420;-0.040;2023-03-08T13:29:32;7.25;;;2.13;;
45836;SDS011;31548;51.420;-0.040;2023-03-08T13:32:09;1.83;;;0.98;;
45836;SDS011;31548;51.420;-0.040;2023-03-08T13:34:39;3.65;;;1.20;;
45836;SDS011;31548;51.420;-0.040;2023-03-08T13:37:18;4.00;;;1.52;;
45836;SDS011;31548;51.420;-0.040;2023-03-08T13:40:30;5.47;;;1.52;;
45836;SDS011;31548;51.420;-0.040;2023-03-08T13:42:51;2.72;;;0.82;;
45836;SDS011;31548;51.420;-0.040;2023-03-08T13:45:28;2.38;;;0.70;;
45836;SDS011;31548;51.420;-0.040;2023-03-08T13:47:56;2.83;;;0.75;;
45836;SDS011;31548;51.420;-0.040;2023-03-08T13:52:56;2.30;;;0.98;;
45836;SDS011;31548;51.420;-0.040;2023-03-08T13:55:28;2.83;;;0.70;;
45836;SDS011;31548;51.420;-0.040;2023-03-08T13:58:01;2.28;;;0.93;;
45836;SDS011;31548;51.420;-0.040;2023-03-08T14:00:30;3.05;;;0.68;;
45836;SDS011;31548;51.420;-0.040;2023-03-08T14:02:59;5.70;;;0.85;;
45836;SDS011;31548;51.420;-0.040;2023-03-08T14:05:30;3.42;;;1.00;;
45836;SDS011;31548;51.420;-0.040;2023-03-08T14:08:04;1.48;;;0.60;;
45836;SDS011;31548;51.420;-0.040;2023-03-08T14:10:41;0.75;;;0.68;;
45836;SDS011;31548;51.420;-0.040;2023-03-08T14:13:16;2.70;;;0.65;;
45836;SDS011;31548;51.420;-0.040;2023-03-08T14:15:49;2.72;;;0.75;;
45836;SDS011;31548;51.420;-0.040;2023-03-08T14:18:40;5.95;;;0.90;;
45836;SDS011;31548;51.420;-0.040;2023-03-08T14:23:42;1.88;;;0.93;;
45836;SDS011;31548;51.420;-0.040;2023-03-08T14:31:50;2.55;;;0.88;;
45836;SDS011;31548;51.420;-0.040;2023-03-08T14:34:24;4.28;;;1.00;;
45836;SDS011;31548;51.420;-0.040;2023-03-08T14:37:03;4.72;;;1.58;;
45836;SDS011;31548;51.420;-0.040;2023-03-08T14:39:33;2.40;;;0.98;;
45836;SDS011;31548;51.420;-0.040;2023-03-08T14:42:22;6.68;;;3.17;;
45836;SDS011;31548;51.420;-0.040;2023-03-08T14:45:00;6.10;;;2.15;;
45836;SDS011;31548;51.420;-0.040;2023-03-08T14:47:31;4.35;;;1.67;;
45836;SDS011;31548;51.420;-0.040;2023-03-08T14:52:34;4.57;;;1.50;;
45836;SDS011;31548;51.420;-0.040;2023-03-08T14:55:03;2.30;;;1.00;;
45836;SDS011;31548;51.420;-0.040;2023-03-08T14:57:48;4.30;;;1.63;;
45836;SDS011;31548;51.420;-0.040;2023-03-08T15:00:23;2.25;;;1.38;;
45836;SDS011;31548;51.420;-0.040;2023-03-08T15:02:53;3.72;;;1.92;;
45836;SDS011;31548;51.420;-0.040;2023-03-08T15:05:22;3.20;;;1.23;;
45836;SDS011;31548;51.420;-0.040;2023-03-08T15:07:56;3.20;;;1.15;;
45836;SDS011;31548;51.420;-0.040;2023-03-08T15:10:32;2.47;;;1.05;;
45836;SDS011;31548;51.420;-0.040;2023-03-08T15:13:03;1.40;;;1.08;;
45836;SDS011;31548;51.420;-0.040;2023-03-08T15:15:33;3.03;;;0.90;;
45836;SDS011;31548;51.420;-0.040;2023-03-08T15:18:00;4.70;;;1.52;;
45836;SDS011;31548;51.420;-0.040;2023-03-08T15:20:28;3.20;;;0.90;;
45836;SDS011;31548;51.420;-0.040;2023-03-08T15:22:57;2.85;;;1.10;;
45836;SDS011;31548;51.420;-0.040;2023-03-08T15:25:27;1.00;;;0.70;;
45836;SDS011;31548;51.420;-0.040;2023-03-08T15:28:03;2.15;;;1.20;;
45836;SDS011;31548;51.420;-0.040;2023-03-08T15:30:31;3.65;;;0.93;;
45836;SDS011;31548;51.420;-0.040;2023-03-08T15:32:58;1.92;;;0.70;;
45836;SDS011;31548;51.420;-0.040;2023-03-08T15:35:28;2.15;;;1.08;;
45836;SDS011;31548;51.420;-0.040;2023-03-08T15:37:55;3.22;;;0.80;;
45836;SDS011;31548;51.420;-0.040;2023-03-08T15:40:25;1.83;;;0.80;;
45836;SDS011;31548;51.420;-0.040;2023-03-08T15:42:54;2.63;;;0.82;;
45836;SDS011;31548;51.420;-0.040;2023-03-08T15:45:21;3.33;;;1.02;;
45836;SDS011;31548;51.420;-0.040;2023-03-08T15:47:58;0.90;;;0.80;;
45836;SDS011;31548;51.420;-0.040;2023-03-08T15:50:27;9.82;;;3.45;;
45836;SDS011;31548;51.420;-0.040;2023-03-08T15:52:56;2.42;;;1.10;;
45836;SDS011;31548;51.420;-0.040;2023-03-08T15:55:25;3.63;;;1.10;;
45836;SDS011;31548;51.420;-0.040;2023-03-08T15:57:53;1.83;;;1.13;;
45836;SDS011;31548;51.420;-0.040;2023-03-08T16:00:21;2.75;;;1.30;;
45836;SDS011;31548;51.420;-0.040;2023-03-08T16:02:49;5.38;;;1.38;;
45836;SDS011;31548;51.420;-0.040;2023-03-08T16:05:19;3.90;;;1.20;;
45836;SDS011;31548;51.420;-0.040;2023-03-08T16:07:55;1.55;;;1.30;;
45836;SDS011;31548;51.420;-0.040;2023-03-08T16:10:25;1.95;;;1.35;;
45836;SDS011;31548;51.420;-0.040;2023-03-08T16:12:54;2.13;;;1.10;;
45836;SDS011;31548;51.420;-0.040;2023-03-08T16:15:21;1.98;;;1.00;;
45836;SDS011;31548;51.420;-0.040;2023-03-08T16:17:49;4.20;;;1.08;;
45836;SDS011;31548;51.420;-0.040;2023-03-08T16:20:16;5.35;;;1.85;;
45836;SDS011;31548;51.420;-0.040;2023-03-08T16:22:44;2.28;;;1.02;;
45836;SDS011;31548;51.420;-0.040;2023-03-08T16:25:11;2.70;;;1.10;;
45836;SDS011;31548;51.420;-0.040;2023-03-08T16:27:40;1.20;;;0.90;;
45836;SDS011;31548;51.420;-0.040;2023-03-08T16:30:09;2.60;;;1.95;;
45836;SDS011;31548;51.420;-0.040;2023-03-08T16:32:37;3.42;;;1.90;;